Moody AFB, Georgia
Current Conditions -  °F | °C
As of 4:12 AM on Monday 24 Nov 2014 (Local Time) from KVAD Reporting Station
Overcast Overcast  
Wind Chill: 70°   Ceiling: 200
Heat Index: 70°   Visibility: 7mi
Dew Point: 70°   Wind: 10mph
Humidity: 100%   Direction: 190°S
Pressure: 29.82"   Gusts: NA
Location:  30.9753°N, 83.2042°W
Report Text: KVAD 240912Z AUTO 19009KT 7SM R36/5000FT OVC002 21/21 A2982 RMK AO2
Loading
Personal Weather Stations






























Interactive Weather Map New forecast layout! Learn more

10-Day Weather Forecast

Advertisements
Track Severe Weather on mobile